sensor_id;sensor_type;location;lat;lon;timestamp;noise_LAeq;noise_LA_min;noise_LA_max;noise_LA01;noise_LA95
37833;Laerm;23678;48.778;9.160;2023-01-09T00:01:43;38.67;34.69;41.68;;
37833;Laerm;23678;48.778;9.160;2023-01-09T00:04:08;38.69;35.04;44.87;;
37833;Laerm;23678;48.778;9.160;2023-01-09T00:06:34;38.72;33.90;41.82;;
37833;Laerm;23678;48.778;9.160;2023-01-09T00:09:00;39.45;35.04;48.12;;
37833;Laerm;23678;48.778;9.160;2023-01-09T00:11:25;38.71;34.31;49.00;;
37833;Laerm;23678;48.778;9.160;2023-01-09T00:13:51;38.79;34.31;54.68;;
37833;Laerm;23678;48.778;9.160;2023-01-09T00:16:16;38.77;34.34;54.81;;
37833;Laerm;23678;48.778;9.160;2023-01-09T00:18:42;38.70;35.04;47.48;;
37833;Laerm;23678;48.778;9.160;2023-01-09T00:21:07;38.76;34.69;55.56;;
37833;Laerm;23678;48.778;9.160;2023-01-09T00:23:37;38.99;35.04;57.19;;
37833;Laerm;23678;48.778;9.160;2023-01-09T00:28:28;39.63;34.69;65.99;;
37833;Laerm;23678;48.778;9.160;2023-01-09T00:30:57;38.98;35.36;60.72;;
37833;Laerm;23678;48.778;9.160;2023-01-09T00:33:30;38.93;34.69;61.19;;
37833;Laerm;23678;48.778;9.160;2023-01-09T00:35:56;38.66;35.01;47.55;;
37833;Laerm;23678;48.778;9.160;2023-01-09T00:38:21;40.02;35.04;70.77;;
37833;Laerm;23678;48.778;9.160;2023-01-09T00:40:47;38.61;35.04;51.23;;
37833;Laerm;23678;48.778;9.160;2023-01-09T00:43:12;38.48;35.01;49.43;;
37833;Laerm;23678;48.778;9.160;2023-01-09T00:45:37;38.54;35.04;55.10;;
37833;Laerm;23678;48.778;9.160;2023-01-09T00:48:05;38.52;35.04;56.84;;
37833;Laerm;23678;48.778;9.160;2023-01-09T00:50:32;38.43;35.04;42.71;;
37833;Laerm;23678;48.778;9.160;2023-01-09T00:53:00;38.45;34.69;42.22;;
37833;Laerm;23678;48.778;9.160;2023-01-09T00:55:27;38.44;34.31;48.15;;
37833;Laerm;23678;48.778;9.160;2023-01-09T00:57:52;38.44;34.69;43.14;;
37833;Laerm;23678;48.778;9.160;2023-01-09T01:00:19;38.43;33.90;40.89;;
37833;Laerm;23678;48.778;9.160;2023-01-09T01:02:44;38.66;33.44;47.93;;
37833;Laerm;23678;48.778;9.160;2023-01-09T01:05:09;38.45;34.69;48.87;;
37833;Laerm;23678;48.778;9.160;2023-01-09T01:08:09;38.54;34.31;55.01;;
37833;Laerm;23678;48.778;9.160;2023-01-09T01:10:34;38.48;35.04;49.49;;
37833;Laerm;23678;48.778;9.160;2023-01-09T01:12:59;39.25;35.04;61.31;;
37833;Laerm;23678;48.778;9.160;2023-01-09T01:15:25;38.47;35.04;41.96;;
37833;Laerm;23678;48.778;9.160;2023-01-09T01:17:53;38.55;34.69;45.77;;
37833;Laerm;23678;48.778;9.160;2023-01-09T01:20:20;38.74;33.90;43.29;;
37833;Laerm;23678;48.778;9.160;2023-01-09T01:22:45;38.50;34.31;43.63;;
37833;Laerm;23678;48.778;9.160;2023-01-09T01:25:11;38.36;34.69;40.89;;
37833;Laerm;23678;48.778;9.160;2023-01-09T01:27:46;39.51;34.31;57.16;;
37833;Laerm;23678;48.778;9.160;2023-01-09T01:30:12;38.55;34.31;51.18;;
37833;Laerm;23678;48.778;9.160;2023-01-09T01:32:38;38.43;35.04;42.06;;
37833;Laerm;23678;48.778;9.160;2023-01-09T01:35:04;38.48;33.44;52.33;;
37833;Laerm;23678;48.778;9.160;2023-01-09T01:37:30;39.90;35.04;68.51;;
37833;Laerm;23678;48.778;9.160;2023-01-09T01:39:56;38.83;35.36;53.57;;
37833;Laerm;23678;48.778;9.160;2023-01-09T01:42:21;38.62;35.04;50.94;;
37833;Laerm;23678;48.778;9.160;2023-01-09T01:44:54;38.50;34.31;43.58;;
37833;Laerm;23678;48.778;9.160;2023-01-09T01:47:21;38.37;35.04;42.47;;
37833;Laerm;23678;48.778;9.160;2023-01-09T01:49:47;39.21;34.31;50.55;;
37833;Laerm;23678;48.778;9.160;2023-01-09T01:52:13;38.29;34.69;47.54;;
37833;Laerm;23678;48.778;9.160;2023-01-09T01:54:39;38.36;33.90;42.47;;
37833;Laerm;23678;48.778;9.160;2023-01-09T01:57:04;39.03;33.90;44.23;;
37833;Laerm;23678;48.778;9.160;2023-01-09T01:59:32;38.42;32.35;42.82;;
37833;Laerm;23678;48.778;9.160;2023-01-09T02:01:59;38.48;33.44;44.69;;
37833;Laerm;23678;48.778;9.160;2023-01-09T02:04:26;38.29;34.69;42.98;;
37833;Laerm;23678;48.778;9.160;2023-01-09T02:06:52;39.75;35.01;65.14;;
37833;Laerm;23678;48.778;9.160;2023-01-09T02:09:18;38.61;34.69;59.92;;
37833;Laerm;23678;48.778;9.160;2023-01-09T02:11:50;39.19;35.04;43.04;;
37833;Laerm;23678;48.778;9.160;2023-01-09T02:14:16;38.33;34.69;40.98;;
37833;Laerm;23678;48.778;9.160;2023-01-09T02:21:56;38.26;34.69;48.87;;
37833;Laerm;23678;48.778;9.160;2023-01-09T02:26:58;38.25;34.69;57.18;;
37833;Laerm;23678;48.778;9.160;2023-01-09T02:29:33;38.14;34.31;40.98;;
37833;Laerm;23678;48.778;9.160;2023-01-09T02:32:14;38.16;33.90;41.22;;
37833;Laerm;23678;48.778;9.160;2023-01-09T02:40:00;38.52;34.31;62.12;;
37833;Laerm;23678;48.778;9.160;2023-01-09T02:42:28;40.27;34.31;68.55;;
37833;Laerm;23678;48.778;9.160;2023-01-09T02:44:53;40.25;35.04;67.99;;
37833;Laerm;23678;48.778;9.160;2023-01-09T02:49:54;39.31;35.04;50.16;;
37833;Laerm;23678;48.778;9.160;2023-01-09T03:00:09;38.25;33.44;41.06;;
37833;Laerm;23678;48.778;9.160;2023-01-09T03:02:50;38.31;33.90;46.66;;
37833;Laerm;23678;48.778;9.160;2023-01-09T03:05:19;38.42;35.04;44.11;;
37833;Laerm;23678;48.778;9.160;2023-01-09T03:07:52;38.38;34.31;46.05;;
37833;Laerm;23678;48.778;9.160;2023-01-09T03:10:31;39.40;35.04;65.17;;
37833;Laerm;23678;48.778;9.160;2023-01-09T03:12:59;40.04;35.36;66.37;;
37833;Laerm;23678;48.778;9.160;2023-01-09T03:15:27;40.97;35.36;72.02;;
37833;Laerm;23678;48.778;9.160;2023-01-09T03:17:53;52.69;35.66;88.69;;
37833;Laerm;23678;48.778;9.160;2023-01-09T03:20:21;45.15;37.52;73.78;;
37833;Laerm;23678;48.778;9.160;2023-01-09T03:22:52;43.83;37.32;73.13;;
37833;Laerm;23678;48.778;9.160;2023-01-09T03:25:17;39.55;35.04;60.51;;
37833;Laerm;23678;48.778;9.160;2023-01-09T03:27:43;39.09;35.36;43.72;;
37833;Laerm;23678;48.778;9.160;2023-01-09T03:30:08;39.01;35.04;41.96;;
37833;Laerm;23678;48.778;9.160;2023-01-09T03:32:34;38.85;34.69;42.88;;
37833;Laerm;23678;48.778;9.160;2023-01-09T03:34:59;38.76;34.69;41.22;;
37833;Laerm;23678;48.778;9.160;2023-01-09T03:37:25;39.00;35.04;41.61;;
37833;Laerm;23678;48.778;9.160;2023-01-09T03:39:51;39.03;34.69;44.54;;
37833;Laerm;23678;48.778;9.160;2023-01-09T03:42:16;39.09;34.69;47.79;;
37833;Laerm;23678;48.778;9.160;2023-01-09T03:44:41;38.89;34.69;45.14;;
37833;Laerm;23678;48.778;9.160;2023-01-09T03:47:07;39.23;35.36;47.76;;
37833;Laerm;23678;48.778;9.160;2023-01-09T03:49:32;38.78;34.69;49.15;;
37833;Laerm;23678;48.778;9.160;2023-01-09T03:51:57;38.90;35.04;51.07;;
37833;Laerm;23678;48.778;9.160;2023-01-09T03:54:22;39.35;35.66;55.65;;
37833;Laerm;23678;48.778;9.160;2023-01-09T03:56:48;41.35;36.45;67.80;;
37833;Laerm;23678;48.778;9.160;2023-01-09T03:59:14;41.82;36.45;72.12;;
37833;Laerm;23678;48.778;9.160;2023-01-09T04:01:39;45.03;37.12;73.30;;
37833;Laerm;23678;48.778;9.160;2023-01-09T04:04:04;44.45;35.36;75.38;;
37833;Laerm;23678;48.778;9.160;2023-01-09T04:06:30;44.20;35.94;77.48;;
37833;Laerm;23678;48.778;9.160;2023-01-09T04:08:55;40.85;36.45;60.81;;
37833;Laerm;23678;48.778;9.160;2023-01-09T04:11:20;39.31;35.66;49.66;;
37833;Laerm;23678;48.778;9.160;2023-01-09T04:13:58;40.39;35.36;52.51;;
37833;Laerm;23678;48.778;9.160;2023-01-09T04:16:26;38.84;35.01;43.54;;
37833;Laerm;23678;48.778;9.160;2023-01-09T04:18:51;38.79;35.36;41.75;;
37833;Laerm;23678;48.778;9.160;2023-01-09T04:21:16;38.89;35.04;41.75;;
37833;Laerm;23678;48.778;9.160;2023-01-09T04:23:54;39.19;35.36;51.89;;
37833;Laerm;23678;48.778;9.160;2023-01-09T04:26:19;39.43;35.36;46.82;;
37833;Laerm;23678;48.778;9.160;2023-01-09T04:28:44;38.85;35.04;41.46;;
37833;Laerm;23678;48.778;9.160;2023-01-09T04:31:10;39.84;35.94;51.26;;
37833;Laerm;23678;48.778;9.160;2023-01-09T04:33:35;38.86;35.01;41.68;;
37833;Laerm;23678;48.778;9.160;2023-01-09T04:36:01;39.90;35.04;51.62;;
37833;Laerm;23678;48.778;9.160;2023-01-09T04:38:26;39.75;35.31;46.71;;
37833;Laerm;23678;48.778;9.160;2023-01-09T04:40:51;39.30;35.36;43.85;;
37833;Laerm;23678;48.778;9.160;2023-01-09T04:43:17;39.21;35.36;43.58;;
37833;Laerm;23678;48.778;9.160;2023-01-09T04:45:42;39.82;34.31;51.21;;
37833;Laerm;23678;48.778;9.160;2023-01-09T04:48:07;38.88;34.69;44.27;;
37833;Laerm;23678;48.778;9.160;2023-01-09T04:50:33;38.60;34.69;41.96;;
37833;Laerm;23678;48.778;9.160;2023-01-09T04:52:58;38.65;33.90;44.31;;
37833;Laerm;23678;48.778;9.160;2023-01-09T04:55:23;38.53;34.69;41.06;;
37833;Laerm;23678;48.778;9.160;2023-01-09T04:57:48;38.64;34.31;46.25;;
37833;Laerm;23678;48.778;9.160;2023-01-09T05:00:14;39.47;35.04;45.17;;
37833;Laerm;23678;48.778;9.160;2023-01-09T05:02:39;38.64;34.69;41.96;;
37833;Laerm;23678;48.778;9.160;2023-01-09T05:05:05;38.48;35.04;41.06;;
37833;Laerm;23678;48.778;9.160;2023-01-09T05:07:31;38.52;34.69;43.14;;
37833;Laerm;23678;48.778;9.160;2023-01-09T05:09:57;38.69;35.04;44.83;;
37833;Laerm;23678;48.778;9.160;2023-01-09T05:12:22;39.47;34.69;49.20;;
37833;Laerm;23678;48.778;9.160;2023-01-09T05:14:47;39.40;34.69;48.78;;
37833;Laerm;23678;48.778;9.160;2023-01-09T05:17:13;41.37;35.36;57.73;;
37833;Laerm;23678;48.778;9.160;2023-01-09T05:19:38;41.00;35.94;44.87;;
37833;Laerm;23678;48.778;9.160;2023-01-09T05:22:04;40.43;35.66;52.04;;
37833;Laerm;23678;48.778;9.160;2023-01-09T05:24:29;39.26;35.66;45.42;;
37833;Laerm;23678;48.778;9.160;2023-01-09T05:26:54;41.97;35.94;53.60;;
37833;Laerm;23678;48.778;9.160;2023-01-09T05:29:20;40.61;35.04;49.14;;
37833;Laerm;23678;48.778;9.160;2023-01-09T05:31:45;39.70;35.01;47.77;;
37833;Laerm;23678;48.778;9.160;2023-01-09T05:34:10;39.11;35.36;44.62;;
37833;Laerm;23678;48.778;9.160;2023-01-09T05:36:36;40.86;36.69;44.94;;
37833;Laerm;23678;48.778;9.160;2023-01-09T05:39:01;40.13;35.66;44.11;;
37833;Laerm;23678;48.778;9.160;2023-01-09T05:41:27;41.25;35.66;52.96;;
37833;Laerm;23678;48.778;9.160;2023-01-09T05:43:52;40.52;35.04;52.92;;
37833;Laerm;23678;48.778;9.160;2023-01-09T05:46:18;42.57;36.69;51.08;;
37833;Laerm;23678;48.778;9.160;2023-01-09T05:48:43;42.14;36.45;53.80;;
37833;Laerm;23678;48.778;9.160;2023-01-09T05:51:09;40.10;36.45;49.51;;
37833;Laerm;23678;48.778;9.160;2023-01-09T05:53:34;40.85;36.45;52.71;;
37833;Laerm;23678;48.778;9.160;2023-01-09T05:56:00;40.94;35.94;49.88;;
37833;Laerm;23678;48.778;9.160;2023-01-09T05:58:25;42.23;36.69;50.28;;
37833;Laerm;23678;48.778;9.160;2023-01-09T06:00:51;39.67;34.69;42.65;;
37833;Laerm;23678;48.778;9.160;2023-01-09T06:03:16;41.57;36.45;53.67;;
37833;Laerm;23678;48.778;9.160;2023-01-09T06:05:42;40.26;35.66;48.51;;
37833;Laerm;23678;48.778;9.160;2023-01-09T06:08:07;40.52;36.91;50.20;;
37833;Laerm;23678;48.778;9.160;2023-01-09T06:10:32;42.84;35.36;55.24;;
37833;Laerm;23678;48.778;9.160;2023-01-09T06:12:57;41.83;35.94;58.20;;
37833;Laerm;23678;48.778;9.160;2023-01-09T06:15:23;40.59;33.44;49.97;;
37833;Laerm;23678;48.778;9.160;2023-01-09T06:17:48;41.01;35.94;50.29;;
37833;Laerm;23678;48.778;9.160;2023-01-09T06:20:13;39.26;35.94;47.67;;
37833;Laerm;23678;48.778;9.160;2023-01-09T06:22:39;41.36;36.20;52.75;;
37833;Laerm;23678;48.778;9.160;2023-01-09T06:25:04;41.43;36.69;51.65;;
37833;Laerm;23678;48.778;9.160;2023-01-09T06:27:30;41.61;36.69;53.45;;
37833;Laerm;23678;48.778;9.160;2023-01-09T06:29:55;41.09;36.20;51.42;;
37833;Laerm;23678;48.778;9.160;2023-01-09T06:32:20;41.30;36.69;50.28;;
37833;Laerm;23678;48.778;9.160;2023-01-09T06:34:45;41.83;37.12;55.53;;
37833;Laerm;23678;48.778;9.160;2023-01-09T06:37:12;41.22;35.36;49.95;;
37833;Laerm;23678;48.778;9.160;2023-01-09T06:39:38;44.68;37.12;56.94;;
37833;Laerm;23678;48.778;9.160;2023-01-09T06:42:03;42.48;37.70;52.70;;
37833;Laerm;23678;48.778;9.160;2023-01-09T06:44:29;42.75;37.32;53.39;;
37833;Laerm;23678;48.778;9.160;2023-01-09T06:46:54;41.05;36.45;50.27;;
37833;Laerm;23678;48.778;9.160;2023-01-09T06:49:19;42.59;37.52;63.38;;
37833;Laerm;23678;48.778;9.160;2023-01-09T06:51:50;42.90;37.32;52.17;;
37833;Laerm;23678;48.778;9.160;2023-01-09T06:54:19;40.95;36.45;53.31;;
37833;Laerm;23678;48.778;9.160;2023-01-09T06:56:45;42.37;37.32;52.81;;
37833;Laerm;23678;48.778;9.160;2023-01-09T06:59:10;40.36;36.69;49.10;;
37833;Laerm;23678;48.778;9.160;2023-01-09T07:01:36;43.39;36.91;51.50;;
37833;Laerm;23678;48.778;9.160;2023-01-09T07:04:03;43.38;36.45;51.88;;
37833;Laerm;23678;48.778;9.160;2023-01-09T07:06:29;42.87;35.36;55.14;;
37833;Laerm;23678;48.778;9.160;2023-01-09T07:08:54;40.99;35.36;50.10;;
37833;Laerm;23678;48.778;9.160;2023-01-09T07:11:20;41.17;36.20;52.96;;
37833;Laerm;23678;48.778;9.160;2023-01-09T07:13:45;40.43;36.69;50.30;;
37833;Laerm;23678;48.778;9.160;2023-01-09T07:16:10;41.99;36.20;54.88;;
37833;Laerm;23678;48.778;9.160;2023-01-09T07:18:41;43.10;36.69;55.74;;
37833;Laerm;23678;48.778;9.160;2023-01-09T07:21:06;40.67;36.45;47.48;;
37833;Laerm;23678;48.778;9.160;2023-01-09T07:23:32;40.79;36.69;54.33;;
37833;Laerm;23678;48.778;9.160;2023-01-09T07:25:58;41.62;36.91;52.29;;
37833;Laerm;23678;48.778;9.160;2023-01-09T07:28:23;42.23;36.45;53.10;;
37833;Laerm;23678;48.778;9.160;2023-01-09T07:30:48;41.18;36.69;51.27;;
37833;Laerm;23678;48.778;9.160;2023-01-09T07:33:14;41.37;35.94;50.47;;
37833;Laerm;23678;48.778;9.160;2023-01-09T07:35:39;40.45;36.20;48.00;;
37833;Laerm;23678;48.778;9.160;2023-01-09T07:38:04;41.03;36.77;47.61;;
37833;Laerm;23678;48.778;9.160;2023-01-09T07:40:30;42.32;36.69;52.22;;
37833;Laerm;23678;48.778;9.160;2023-01-09T07:42:55;41.96;36.45;51.60;;
37833;Laerm;23678;48.778;9.160;2023-01-09T07:45:20;41.41;36.20;50.25;;
37833;Laerm;23678;48.778;9.160;2023-01-09T07:47:46;41.57;35.94;50.08;;
37833;Laerm;23678;48.778;9.160;2023-01-09T07:50:11;39.59;35.66;46.25;;
37833;Laerm;23678;48.778;9.160;2023-01-09T07:52:36;40.28;36.45;45.80;;
37833;Laerm;23678;48.778;9.160;2023-01-09T07:55:02;40.94;36.56;51.58;;
37833;Laerm;23678;48.778;9.160;2023-01-09T07:57:27;41.32;37.32;49.77;;
37833;Laerm;23678;48.778;9.160;2023-01-09T07:59:54;41.54;36.69;48.76;;
37833;Laerm;23678;48.778;9.160;2023-01-09T08:02:19;41.79;36.91;50.20;;
37833;Laerm;23678;48.778;9.160;2023-01-09T08:04:45;41.58;35.66;50.52;;
37833;Laerm;23678;48.778;9.160;2023-01-09T08:07:10;40.04;36.45;48.87;;
37833;Laerm;23678;48.778;9.160;2023-01-09T08:09:35;41.60;36.45;50.67;;
37833;Laerm;23678;48.778;9.160;2023-01-09T08:12:01;40.63;36.20;51.66;;
37833;Laerm;23678;48.778;9.160;2023-01-09T08:14:28;39.67;36.20;44.23;;
37833;Laerm;23678;48.778;9.160;2023-01-09T08:16:53;40.97;36.20;47.96;;
37833;Laerm;23678;48.778;9.160;2023-01-09T08:19:18;43.33;37.88;54.59;;
37833;Laerm;23678;48.778;9.160;2023-01-09T08:21:44;43.55;36.20;56.52;;
37833;Laerm;23678;48.778;9.160;2023-01-09T08:24:09;40.25;36.20;45.83;;
37833;Laerm;23678;48.778;9.160;2023-01-09T08:26:35;40.74;35.94;50.78;;
37833;Laerm;23678;48.778;9.160;2023-01-09T08:29:00;43.34;37.12;56.16;;
37833;Laerm;23678;48.778;9.160;2023-01-09T08:31:25;42.65;36.45;53.69;;
37833;Laerm;23678;48.778;9.160;2023-01-09T08:33:50;43.83;37.88;51.41;;
37833;Laerm;23678;48.778;9.160;2023-01-09T08:36:16;41.21;36.69;52.85;;
37833;Laerm;23678;48.778;9.160;2023-01-09T08:38:41;40.98;36.69;53.74;;
37833;Laerm;23678;48.778;9.160;2023-01-09T08:41:06;42.81;36.69;52.00;;
37833;Laerm;23678;48.778;9.160;2023-01-09T08:43:50;42.17;36.69;63.77;;
37833;Laerm;23678;48.778;9.160;2023-01-09T08:46:34;41.32;36.45;49.33;;
37833;Laerm;23678;48.778;9.160;2023-01-09T08:49:18;40.86;35.94;48.16;;
37833;Laerm;23678;48.778;9.160;2023-01-09T08:51:44;43.07;36.69;59.06;;
37833;Laerm;23678;48.778;9.160;2023-01-09T08:54:09;40.67;36.91;53.23;;
37833;Laerm;23678;48.778;9.160;2023-01-09T08:56:34;42.26;37.12;62.98;;
37833;Laerm;23678;48.778;9.160;2023-01-09T08:58:59;41.27;35.94;53.24;;
37833;Laerm;23678;48.778;9.160;2023-01-09T09:01:25;42.54;37.12;55.05;;
37833;Laerm;23678;48.778;9.160;2023-01-09T09:03:50;41.21;36.20;59.41;;
37833;Laerm;23678;48.778;9.160;2023-01-09T09:06:15;40.93;35.04;58.55;;
37833;Laerm;23678;48.778;9.160;2023-01-09T09:08:41;42.72;36.20;51.61;;
37833;Laerm;23678;48.778;9.160;2023-01-09T09:11:06;41.11;35.94;49.71;;
37833;Laerm;23678;48.778;9.160;2023-01-09T09:13:31;43.67;34.69;60.62;;
37833;Laerm;23678;48.778;9.160;2023-01-09T09:15:57;41.16;36.34;52.16;;
37833;Laerm;23678;48.778;9.160;2023-01-09T09:18:22;40.96;36.20;54.67;;
37833;Laerm;23678;48.778;9.160;2023-01-09T09:20:47;40.98;36.10;54.67;;
37833;Laerm;23678;48.778;9.160;2023-01-09T09:23:12;41.28;36.91;48.57;;
37833;Laerm;23678;48.778;9.160;2023-01-09T09:25:38;40.98;35.66;61.24;;
37833;Laerm;23678;48.778;9.160;2023-01-09T09:28:03;42.86;36.91;55.61;;
37833;Laerm;23678;48.778;9.160;2023-01-09T09:30:29;41.33;35.94;53.64;;
37833;Laerm;23678;48.778;9.160;2023-01-09T09:32:54;41.97;36.69;54.11;;
37833;Laerm;23678;48.778;9.160;2023-01-09T09:35:19;46.04;38.52;58.01;;
37833;Laerm;23678;48.778;9.160;2023-01-09T09:37:55;43.36;38.81;55.64;;
37833;Laerm;23678;48.778;9.160;2023-01-09T09:40:43;42.91;38.81;58.14;;
37833;Laerm;23678;48.778;9.160;2023-01-09T09:48:38;43.16;35.04;57.03;;
37833;Laerm;23678;48.778;9.160;2023-01-09T09:56:19;41.55;36.69;52.82;;
37833;Laerm;23678;48.778;9.160;2023-01-09T09:58:47;40.39;35.36;57.78;;
37833;Laerm;23678;48.778;9.160;2023-01-09T10:01:16;40.93;35.36;49.79;;
37833;Laerm;23678;48.778;9.160;2023-01-09T10:06:09;40.13;35.94;49.20;;
37833;Laerm;23678;48.778;9.160;2023-01-09T10:11:25;42.00;35.94;54.69;;
37833;Laerm;23678;48.778;9.160;2023-01-09T10:13:53;41.88;35.94;50.55;;
37833;Laerm;23678;48.778;9.160;2023-01-09T10:23:58;40.98;36.77;49.03;;
37833;Laerm;23678;48.778;9.160;2023-01-09T10:34:24;40.57;35.66;46.50;;
37833;Laerm;23678;48.778;9.160;2023-01-09T10:39:21;42.69;36.20;60.70;;
37833;Laerm;23678;48.778;9.160;2023-01-09T10:44:14;41.27;35.36;52.28;;
37833;Laerm;23678;48.778;9.160;2023-01-09T10:46:43;41.68;37.12;51.09;;
37833;Laerm;23678;48.778;9.160;2023-01-09T10:49:14;40.55;36.20;48.21;;
37833;Laerm;23678;48.778;9.160;2023-01-09T10:54:19;41.26;35.94;54.09;;
37833;Laerm;23678;48.778;9.160;2023-01-09T10:56:56;42.27;38.05;51.18;;
37833;Laerm;23678;48.778;9.160;2023-01-09T10:59:23;41.92;36.20;56.88;;
37833;Laerm;23678;48.778;9.160;2023-01-09T11:01:49;43.49;36.91;51.59;;
37833;Laerm;23678;48.778;9.160;2023-01-09T11:04:19;44.55;38.37;52.06;;
37833;Laerm;23678;48.778;9.160;2023-01-09T11:06:47;39.85;35.36;44.47;;
37833;Laerm;23678;48.778;9.160;2023-01-09T11:09:14;41.55;36.45;48.20;;
37833;Laerm;23678;48.778;9.160;2023-01-09T11:11:41;47.10;36.91;61.40;;
37833;Laerm;23678;48.778;9.160;2023-01-09T11:14:23;39.91;36.45;46.15;;
37833;Laerm;23678;48.778;9.160;2023-01-09T11:17:01;40.30;35.66;45.80;;
37833;Laerm;23678;48.778;9.160;2023-01-09T11:19:30;41.27;36.45;50.87;;
37833;Laerm;23678;48.778;9.160;2023-01-09T11:22:07;41.10;35.36;51.91;;
37833;Laerm;23678;48.778;9.160;2023-01-09T11:24:33;41.26;36.20;48.95;;
37833;Laerm;23678;48.778;9.160;2023-01-09T11:27:31;40.64;36.20;47.77;;
37833;Laerm;23678;48.778;9.160;2023-01-09T11:30:04;55.69;36.20;83.85;;
37833;Laerm;23678;48.778;9.160;2023-01-09T11:32:31;50.86;35.66;74.44;;
37833;Laerm;23678;48.778;9.160;2023-01-09T11:34:57;45.00;36.45;56.71;;
37833;Laerm;23678;48.778;9.160;2023-01-09T11:37:27;43.36;37.88;59.11;;
37833;Laerm;23678;48.778;9.160;2023-01-09T11:39:53;49.08;35.66;73.53;;
37833;Laerm;23678;48.778;9.160;2023-01-09T11:42:21;50.13;35.94;77.46;;
37833;Laerm;23678;48.778;9.160;2023-01-09T11:45:12;49.36;36.45;71.07;;
37833;Laerm;23678;48.778;9.160;2023-01-09T11:47:38;47.98;40.13;66.97;;
37833;Laerm;23678;48.778;9.160;2023-01-09T11:50:24;46.30;35.66;71.94;;
37833;Laerm;23678;48.778;9.160;2023-01-09T11:55:33;43.06;36.20;54.97;;
37833;Laerm;23678;48.778;9.160;2023-01-09T11:57:59;42.73;35.36;55.11;;
37833;Laerm;23678;48.778;9.160;2023-01-09T12:00:25;40.01;35.36;46.33;;
37833;Laerm;23678;48.778;9.160;2023-01-09T12:03:40;41.19;35.94;50.52;;
37833;Laerm;23678;48.778;9.160;2023-01-09T12:10:46;40.22;35.66;48.03;;
37833;Laerm;23678;48.778;9.160;2023-01-09T12:21:18;40.23;35.36;49.25;;
37833;Laerm;23678;48.778;9.160;2023-01-09T12:28:46;41.00;36.45;47.91;;
37833;Laerm;23678;48.778;9.160;2023-01-09T12:46:57;39.96;35.36;49.45;;
37833;Laerm;23678;48.778;9.160;2023-01-09T12:52:21;40.44;35.94;49.75;;
37833;Laerm;23678;48.778;9.160;2023-01-09T12:54:53;41.67;36.45;49.00;;
37833;Laerm;23678;48.778;9.160;2023-01-09T12:57:22;39.94;35.94;54.61;;
37833;Laerm;23678;48.778;9.160;2023-01-09T12:59:56;43.33;37.12;53.83;;
37833;Laerm;23678;48.778;9.160;2023-01-09T13:04:50;45.21;37.70;58.07;;
37833;Laerm;23678;48.778;9.160;2023-01-09T13:07:29;39.12;34.31;51.82;;
37833;Laerm;23678;48.778;9.160;2023-01-09T13:10:03;40.26;35.36;51.60;;
37833;Laerm;23678;48.778;9.160;2023-01-09T13:12:32;41.17;35.59;57.41;;
37833;Laerm;23678;48.778;9.160;2023-01-09T13:15:00;41.47;35.66;55.34;;
37833;Laerm;23678;48.778;9.160;2023-01-09T13:26:15;39.60;35.36;46.89;;
37833;Laerm;23678;48.778;9.160;2023-01-09T13:28:42;41.52;35.94;54.32;;
37833;Laerm;23678;48.778;9.160;2023-01-09T13:33:48;40.35;35.94;55.24;;
37833;Laerm;23678;48.778;9.160;2023-01-09T13:36:20;38.94;35.36;47.36;;
37833;Laerm;23678;48.778;9.160;2023-01-09T13:38:47;40.53;35.66;50.86;;
37833;Laerm;23678;48.778;9.160;2023-01-09T13:41:14;42.37;36.69;56.63;;
37833;Laerm;23678;48.778;9.160;2023-01-09T13:43:59;41.29;35.94;54.04;;
37833;Laerm;23678;48.778;9.160;2023-01-09T13:46:34;40.40;36.20;46.13;;
37833;Laerm;23678;48.778;9.160;2023-01-09T13:49:01;42.30;37.12;53.70;;
37833;Laerm;23678;48.778;9.160;2023-01-09T13:51:35;42.72;35.66;51.72;;
37833;Laerm;23678;48.778;9.160;2023-01-09T13:54:00;40.70;35.94;51.11;;
37833;Laerm;23678;48.778;9.160;2023-01-09T13:56:26;40.64;36.34;49.55;;
37833;Laerm;23678;48.778;9.160;2023-01-09T14:01:41;41.98;36.45;49.56;;
37833;Laerm;23678;48.778;9.160;2023-01-09T14:06:33;40.40;35.36;48.73;;
37833;Laerm;23678;48.778;9.160;2023-01-09T14:09:14;40.42;35.94;53.50;;
37833;Laerm;23678;48.778;9.160;2023-01-09T14:11:43;41.22;36.45;52.11;;
37833;Laerm;23678;48.778;9.160;2023-01-09T14:14:26;42.93;36.45;54.54;;
37833;Laerm;23678;48.778;9.160;2023-01-09T14:16:53;40.30;35.66;48.52;;
37833;Laerm;23678;48.778;9.160;2023-01-09T14:19:20;40.33;35.66;53.47;;
37833;Laerm;23678;48.778;9.160;2023-01-09T14:21:54;40.41;35.04;50.46;;
37833;Laerm;23678;48.778;9.160;2023-01-09T14:24:31;41.53;36.20;49.44;;
37833;Laerm;23678;48.778;9.160;2023-01-09T14:26:58;41.29;35.94;49.75;;
37833;Laerm;23678;48.778;9.160;2023-01-09T14:31:52;43.34;37.12;57.17;;
37833;Laerm;23678;48.778;9.160;2023-01-09T14:34:27;41.04;36.20;60.91;;
37833;Laerm;23678;48.778;9.160;2023-01-09T14:36:55;42.74;36.20;52.67;;
37833;Laerm;23678;48.778;9.160;2023-01-09T14:39:22;40.56;36.20;47.40;;
37833;Laerm;23678;48.778;9.160;2023-01-09T14:41:49;41.18;35.94;54.30;;
37833;Laerm;23678;48.778;9.160;2023-01-09T14:46:53;43.67;36.69;64.62;;
37833;Laerm;23678;48.778;9.160;2023-01-09T14:52:25;42.10;35.66;55.52;;
37833;Laerm;23678;48.778;9.160;2023-01-09T14:54:49;41.61;36.20;56.11;;
37833;Laerm;23678;48.778;9.160;2023-01-09T14:57:22;43.27;36.20;59.91;;
37833;Laerm;23678;48.778;9.160;2023-01-09T14:59:58;42.32;36.20;52.53;;
37833;Laerm;23678;48.778;9.160;2023-01-09T15:02:24;42.11;36.45;52.56;;
37833;Laerm;23678;48.778;9.160;2023-01-09T15:04:52;42.74;35.36;53.08;;
37833;Laerm;23678;48.778;9.160;2023-01-09T15:07:19;40.32;35.94;52.04;;
37833;Laerm;23678;48.778;9.160;2023-01-09T15:09:45;40.21;35.36;47.34;;
37833;Laerm;23678;48.778;9.160;2023-01-09T15:12:14;39.55;35.94;44.76;;
37833;Laerm;23678;48.778;9.160;2023-01-09T15:14:42;42.97;35.94;53.53;;
37833;Laerm;23678;48.778;9.160;2023-01-09T15:17:15;42.25;36.45;51.33;;
37833;Laerm;23678;48.778;9.160;2023-01-09T15:19:43;42.21;35.94;52.03;;
37833;Laerm;23678;48.778;9.160;2023-01-09T15:22:19;42.69;36.69;60.48;;
37833;Laerm;23678;48.778;9.160;2023-01-09T15:24:45;41.41;37.12;51.03;;
37833;Laerm;23678;48.778;9.160;2023-01-09T15:27:11;41.73;37.32;54.44;;
37833;Laerm;23678;48.778;9.160;2023-01-09T15:29:37;42.65;38.74;50.98;;
37833;Laerm;23678;48.778;9.160;2023-01-09T15:32:03;42.72;38.52;51.12;;
37833;Laerm;23678;48.778;9.160;2023-01-09T15:34:31;41.40;36.91;47.98;;
37833;Laerm;23678;48.778;9.160;2023-01-09T15:36:57;42.50;34.69;55.65;;
37833;Laerm;23678;48.778;9.160;2023-01-09T15:39:24;42.80;36.20;58.48;;
37833;Laerm;23678;48.778;9.160;2023-01-09T15:41:50;41.84;36.69;56.68;;
37833;Laerm;23678;48.778;9.160;2023-01-09T15:47:30;42.68;36.20;58.78;;
37833;Laerm;23678;48.778;9.160;2023-01-09T15:49:56;41.61;35.94;56.14;;
37833;Laerm;23678;48.778;9.160;2023-01-09T15:52:21;39.94;36.69;50.16;;
37833;Laerm;23678;48.778;9.160;2023-01-09T15:54:47;42.18;37.32;61.34;;
37833;Laerm;23678;48.778;9.160;2023-01-09T15:57:26;44.00;37.52;69.98;;
37833;Laerm;23678;48.778;9.160;2023-01-09T15:59:53;44.02;38.18;63.71;;
37833;Laerm;23678;48.778;9.160;2023-01-09T16:02:19;42.15;36.91;59.16;;